sensor_id;sensor_type;location;lat;lon;timestamp;P1;durP1;ratioP1;P2;durP2;ratioP2
56114;SDS011;41988;53.020;6.576;2023-08-30T00:00:02;20.33;;;14.20;;
56114;SDS011;41988;53.020;6.576;2023-08-30T00:02:47;24.00;;;16.83;;
56114;SDS011;41988;53.020;6.576;2023-08-30T00:05:31;17.92;;;14.30;;
56114;SDS011;41988;53.020;6.576;2023-08-30T00:08:16;20.73;;;15.85;;
56114;SDS011;41988;53.020;6.576;2023-08-30T00:11:02;18.38;;;15.40;;
56114;SDS011;41988;53.020;6.576;2023-08-30T00:13:47;18.48;;;15.27;;
56114;SDS011;41988;53.020;6.576;2023-08-30T00:16:32;19.52;;;14.63;;
56114;SDS011;41988;53.020;6.576;2023-08-30T00:19:17;18.80;;;15.10;;
56114;SDS011;41988;53.020;6.576;2023-08-30T00:22:02;18.88;;;15.73;;
56114;SDS011;41988;53.020;6.576;2023-08-30T00:24:46;21.50;;;15.80;;
56114;SDS011;41988;53.020;6.576;2023-08-30T00:27:31;21.45;;;16.30;;
56114;SDS011;41988;53.020;6.576;2023-08-30T00:30:15;20.73;;;16.33;;
56114;SDS011;41988;53.020;6.576;2023-08-30T00:33:00;19.30;;;15.65;;
56114;SDS011;41988;53.020;6.576;2023-08-30T00:35:44;22.95;;;17.60;;
56114;SDS011;41988;53.020;6.576;2023-08-30T00:38:30;24.85;;;18.40;;
56114;SDS011;41988;53.020;6.576;2023-08-30T00:41:15;24.27;;;17.65;;
56114;SDS011;41988;53.020;6.576;2023-08-30T00:43:59;28.60;;;19.35;;
56114;SDS011;41988;53.020;6.576;2023-08-30T00:46:44;24.00;;;18.80;;
56114;SDS011;41988;53.020;6.576;2023-08-30T00:49:32;26.30;;;18.92;;
56114;SDS011;41988;53.020;6.576;2023-08-30T00:52:17;21.65;;;17.83;;
56114;SDS011;41988;53.020;6.576;2023-08-30T00:55:02;22.30;;;16.45;;
56114;SDS011;41988;53.020;6.576;2023-08-30T00:57:46;24.35;;;17.80;;
56114;SDS011;41988;53.020;6.576;2023-08-30T01:00:31;22.00;;;17.55;;
56114;SDS011;41988;53.020;6.576;2023-08-30T01:03:16;20.20;;;16.70;;
56114;SDS011;41988;53.020;6.576;2023-08-30T01:06:00;20.77;;;15.98;;
56114;SDS011;41988;53.020;6.576;2023-08-30T01:08:45;21.55;;;17.23;;
56114;SDS011;41988;53.020;6.576;2023-08-30T01:11:36;24.45;;;17.15;;
56114;SDS011;41988;53.020;6.576;2023-08-30T01:14:31;17.70;;;12.75;;
56114;SDS011;41988;53.020;6.576;2023-08-30T01:17:19;19.63;;;15.70;;
56114;SDS011;41988;53.020;6.576;2023-08-30T01:20:05;20.65;;;16.70;;
56114;SDS011;41988;53.020;6.576;2023-08-30T01:25:52;23.23;;;18.25;;
56114;SDS011;41988;53.020;6.576;2023-08-30T01:28:38;24.55;;;17.80;;
56114;SDS011;41988;53.020;6.576;2023-08-30T01:31:23;24.25;;;17.58;;
56114;SDS011;41988;53.020;6.576;2023-08-30T01:34:08;23.88;;;17.95;;
56114;SDS011;41988;53.020;6.576;2023-08-30T01:36:53;20.17;;;15.98;;
56114;SDS011;41988;53.020;6.576;2023-08-30T01:39:38;22.33;;;16.20;;
56114;SDS011;41988;53.020;6.576;2023-08-30T01:42:24;19.35;;;16.15;;
56114;SDS011;41988;53.020;6.576;2023-08-30T01:45:10;23.13;;;17.00;;
56114;SDS011;41988;53.020;6.576;2023-08-30T01:47:57;21.25;;;15.73;;
56114;SDS011;41988;53.020;6.576;2023-08-30T01:50:42;20.67;;;16.10;;
56114;SDS011;41988;53.020;6.576;2023-08-30T01:53:27;18.60;;;14.85;;
56114;SDS011;41988;53.020;6.576;2023-08-30T01:56:13;20.42;;;15.60;;
56114;SDS011;41988;53.020;6.576;2023-08-30T01:58:57;21.88;;;14.32;;
56114;SDS011;41988;53.020;6.576;2023-08-30T02:01:42;17.70;;;14.20;;
56114;SDS011;41988;53.020;6.576;2023-08-30T02:04:27;18.15;;;13.93;;
56114;SDS011;41988;53.020;6.576;2023-08-30T02:07:16;20.90;;;13.80;;
56114;SDS011;41988;53.020;6.576;2023-08-30T02:10:02;18.13;;;13.40;;
56114;SDS011;41988;53.020;6.576;2023-08-30T02:12:52;19.77;;;13.32;;
56114;SDS011;41988;53.020;6.576;2023-08-30T02:15:38;18.27;;;13.55;;
56114;SDS011;41988;53.020;6.576;2023-08-30T02:18:24;18.67;;;13.13;;
56114;SDS011;41988;53.020;6.576;2023-08-30T02:21:10;18.98;;;13.45;;
56114;SDS011;41988;53.020;6.576;2023-08-30T02:23:54;16.63;;;13.95;;
56114;SDS011;41988;53.020;6.576;2023-08-30T02:26:39;15.75;;;12.98;;
56114;SDS011;41988;53.020;6.576;2023-08-30T02:29:24;18.75;;;13.50;;
56114;SDS011;41988;53.020;6.576;2023-08-30T02:32:08;19.35;;;13.70;;
56114;SDS011;41988;53.020;6.576;2023-08-30T02:34:53;19.02;;;14.10;;
56114;SDS011;41988;53.020;6.576;2023-08-30T02:37:37;18.58;;;13.43;;
56114;SDS011;41988;53.020;6.576;2023-08-30T02:40:23;19.85;;;13.25;;
56114;SDS011;41988;53.020;6.576;2023-08-30T02:43:08;18.50;;;14.73;;
56114;SDS011;41988;53.020;6.576;2023-08-30T02:45:53;19.70;;;13.77;;
56114;SDS011;41988;53.020;6.576;2023-08-30T02:48:38;18.63;;;13.95;;
56114;SDS011;41988;53.020;6.576;2023-08-30T02:51:23;19.45;;;13.88;;
56114;SDS011;41988;53.020;6.576;2023-08-30T02:54:07;18.85;;;14.30;;
56114;SDS011;41988;53.020;6.576;2023-08-30T02:56:52;20.38;;;14.90;;
56114;SDS011;41988;53.020;6.576;2023-08-30T02:59:36;21.70;;;14.45;;
56114;SDS011;41988;53.020;6.576;2023-08-30T03:02:21;17.00;;;13.35;;
56114;SDS011;41988;53.020;6.576;2023-08-30T03:05:06;19.50;;;14.13;;
56114;SDS011;41988;53.020;6.576;2023-08-30T03:07:52;16.27;;;12.90;;
56114;SDS011;41988;53.020;6.576;2023-08-30T03:10:37;18.33;;;13.15;;
56114;SDS011;41988;53.020;6.576;2023-08-30T03:13:21;16.20;;;13.68;;
56114;SDS011;41988;53.020;6.576;2023-08-30T03:16:15;17.27;;;12.80;;
56114;SDS011;41988;53.020;6.576;2023-08-30T03:21:45;13.90;;;11.50;;
56114;SDS011;41988;53.020;6.576;2023-08-30T03:24:29;16.67;;;11.65;;
56114;SDS011;41988;53.020;6.576;2023-08-30T03:27:14;20.13;;;12.82;;
56114;SDS011;41988;53.020;6.576;2023-08-30T03:29:59;16.33;;;12.10;;
56114;SDS011;41988;53.020;6.576;2023-08-30T03:32:44;16.67;;;12.38;;
56114;SDS011;41988;53.020;6.576;2023-08-30T03:35:33;16.13;;;12.77;;
56114;SDS011;41988;53.020;6.576;2023-08-30T03:38:18;17.85;;;12.90;;
56114;SDS011;41988;53.020;6.576;2023-08-30T03:41:02;18.98;;;13.30;;
56114;SDS011;41988;53.020;6.576;2023-08-30T03:43:47;17.40;;;13.13;;
56114;SDS011;41988;53.020;6.576;2023-08-30T03:46:32;16.77;;;12.90;;
56114;SDS011;41988;53.020;6.576;2023-08-30T03:49:16;20.00;;;13.77;;
56114;SDS011;41988;53.020;6.576;2023-08-30T03:52:01;16.92;;;13.10;;
56114;SDS011;41988;53.020;6.576;2023-08-30T03:54:45;16.35;;;13.02;;
56114;SDS011;41988;53.020;6.576;2023-08-30T03:57:30;16.17;;;13.30;;
56114;SDS011;41988;53.020;6.576;2023-08-30T04:00:15;18.77;;;13.63;;
56114;SDS011;41988;53.020;6.576;2023-08-30T04:02:59;20.63;;;14.48;;
56114;SDS011;41988;53.020;6.576;2023-08-30T04:05:44;18.48;;;14.35;;
56114;SDS011;41988;53.020;6.576;2023-08-30T04:08:28;19.42;;;13.88;;
56114;SDS011;41988;53.020;6.576;2023-08-30T04:11:13;21.13;;;14.48;;
56114;SDS011;41988;53.020;6.576;2023-08-30T04:13:58;17.27;;;13.10;;
56114;SDS011;41988;53.020;6.576;2023-08-30T04:16:42;21.45;;;14.25;;
56114;SDS011;41988;53.020;6.576;2023-08-30T04:19:27;20.95;;;14.77;;
56114;SDS011;41988;53.020;6.576;2023-08-30T04:22:11;19.70;;;13.98;;
56114;SDS011;41988;53.020;6.576;2023-08-30T04:24:56;19.10;;;13.93;;
56114;SDS011;41988;53.020;6.576;2023-08-30T04:27:40;16.98;;;13.48;;
56114;SDS011;41988;53.020;6.576;2023-08-30T04:30:25;21.70;;;13.63;;
56114;SDS011;41988;53.020;6.576;2023-08-30T04:33:09;16.65;;;13.20;;
56114;SDS011;41988;53.020;6.576;2023-08-30T04:35:54;20.02;;;14.30;;
56114;SDS011;41988;53.020;6.576;2023-08-30T04:38:39;17.48;;;14.00;;
56114;SDS011;41988;53.020;6.576;2023-08-30T04:41:24;17.65;;;13.95;;
56114;SDS011;41988;53.020;6.576;2023-08-30T04:44:08;18.70;;;13.38;;
56114;SDS011;41988;53.020;6.576;2023-08-30T04:46:53;17.52;;;13.80;;
56114;SDS011;41988;53.020;6.576;2023-08-30T04:49:38;19.25;;;13.70;;
56114;SDS011;41988;53.020;6.576;2023-08-30T04:52:23;19.77;;;14.05;;
56114;SDS011;41988;53.020;6.576;2023-08-30T04:55:08;18.15;;;12.82;;
56114;SDS011;41988;53.020;6.576;2023-08-30T04:57:53;17.02;;;14.32;;
56114;SDS011;41988;53.020;6.576;2023-08-30T05:00:37;17.55;;;12.77;;
56114;SDS011;41988;53.020;6.576;2023-08-30T05:03:22;19.77;;;13.88;;
56114;SDS011;41988;53.020;6.576;2023-08-30T05:06:07;18.40;;;13.70;;
56114;SDS011;41988;53.020;6.576;2023-08-30T05:08:51;18.95;;;14.40;;
56114;SDS011;41988;53.020;6.576;2023-08-30T05:11:36;16.80;;;12.57;;
56114;SDS011;41988;53.020;6.576;2023-08-30T05:14:21;16.10;;;14.35;;
56114;SDS011;41988;53.020;6.576;2023-08-30T05:17:05;18.67;;;13.60;;
56114;SDS011;41988;53.020;6.576;2023-08-30T05:19:50;26.20;;;13.52;;
56114;SDS011;41988;53.020;6.576;2023-08-30T05:22:34;16.45;;;12.48;;
56114;SDS011;41988;53.020;6.576;2023-08-30T05:25:19;20.90;;;13.85;;
56114;SDS011;41988;53.020;6.576;2023-08-30T05:28:03;17.30;;;13.52;;
56114;SDS011;41988;53.020;6.576;2023-08-30T05:30:48;18.25;;;12.77;;
56114;SDS011;41988;53.020;6.576;2023-08-30T05:33:32;18.08;;;12.93;;
56114;SDS011;41988;53.020;6.576;2023-08-30T05:36:17;18.20;;;12.93;;
56114;SDS011;41988;53.020;6.576;2023-08-30T05:39:02;15.98;;;12.60;;
56114;SDS011;41988;53.020;6.576;2023-08-30T05:41:47;20.30;;;13.85;;
56114;SDS011;41988;53.020;6.576;2023-08-30T05:44:31;17.80;;;12.32;;
56114;SDS011;41988;53.020;6.576;2023-08-30T05:47:16;16.38;;;12.30;;
56114;SDS011;41988;53.020;6.576;2023-08-30T05:50:02;15.70;;;11.93;;
56114;SDS011;41988;53.020;6.576;2023-08-30T05:52:47;17.48;;;12.52;;
56114;SDS011;41988;53.020;6.576;2023-08-30T05:55:31;14.63;;;11.70;;
56114;SDS011;41988;53.020;6.576;2023-08-30T05:58:16;19.35;;;12.23;;
56114;SDS011;41988;53.020;6.576;2023-08-30T06:01:02;15.85;;;11.45;;
56114;SDS011;41988;53.020;6.576;2023-08-30T06:03:47;14.68;;;10.05;;
56114;SDS011;41988;53.020;6.576;2023-08-30T06:06:31;16.67;;;11.68;;
56114;SDS011;41988;53.020;6.576;2023-08-30T06:09:16;16.05;;;11.60;;
56114;SDS011;41988;53.020;6.576;2023-08-30T06:12:01;13.55;;;10.88;;
56114;SDS011;41988;53.020;6.576;2023-08-30T06:14:45;16.73;;;11.50;;
56114;SDS011;41988;53.020;6.576;2023-08-30T06:17:35;16.25;;;10.90;;
56114;SDS011;41988;53.020;6.576;2023-08-30T06:20:20;14.23;;;10.60;;
56114;SDS011;41988;53.020;6.576;2023-08-30T06:23:04;15.70;;;10.90;;
56114;SDS011;41988;53.020;6.576;2023-08-30T06:25:58;14.27;;;11.85;;
56114;SDS011;41988;53.020;6.576;2023-08-30T06:28:44;16.65;;;11.68;;
56114;SDS011;41988;53.020;6.576;2023-08-30T06:31:28;20.55;;;11.30;;
56114;SDS011;41988;53.020;6.576;2023-08-30T06:34:15;17.30;;;10.75;;
56114;SDS011;41988;53.020;6.576;2023-08-30T06:37:00;13.77;;;10.32;;
56114;SDS011;41988;53.020;6.576;2023-08-30T06:39:45;14.88;;;10.45;;
56114;SDS011;41988;53.020;6.576;2023-08-30T06:42:30;14.45;;;10.60;;
56114;SDS011;41988;53.020;6.576;2023-08-30T06:45:14;19.13;;;11.13;;
56114;SDS011;41988;53.020;6.576;2023-08-30T06:48:00;16.13;;;10.38;;
56114;SDS011;41988;53.020;6.576;2023-08-30T06:50:45;14.00;;;10.27;;
56114;SDS011;41988;53.020;6.576;2023-08-30T06:53:29;12.77;;;10.38;;
56114;SDS011;41988;53.020;6.576;2023-08-30T06:56:14;15.05;;;10.18;;
56114;SDS011;41988;53.020;6.576;2023-08-30T06:58:58;14.05;;;9.77;;
56114;SDS011;41988;53.020;6.576;2023-08-30T07:01:43;12.18;;;9.65;;
56114;SDS011;41988;53.020;6.576;2023-08-30T07:04:28;14.00;;;10.15;;
56114;SDS011;41988;53.020;6.576;2023-08-30T07:07:13;14.52;;;10.65;;
56114;SDS011;41988;53.020;6.576;2023-08-30T07:09:58;16.45;;;9.43;;
56114;SDS011;41988;53.020;6.576;2023-08-30T07:12:42;15.20;;;9.75;;
56114;SDS011;41988;53.020;6.576;2023-08-30T07:15:28;14.95;;;10.63;;
56114;SDS011;41988;53.020;6.576;2023-08-30T07:18:13;13.75;;;9.63;;
56114;SDS011;41988;53.020;6.576;2023-08-30T07:20:57;15.65;;;9.90;;
56114;SDS011;41988;53.020;6.576;2023-08-30T07:23:43;17.52;;;10.77;;
56114;SDS011;41988;53.020;6.576;2023-08-30T07:26:28;16.52;;;10.63;;
56114;SDS011;41988;53.020;6.576;2023-08-30T07:29:13;14.07;;;9.95;;
56114;SDS011;41988;53.020;6.576;2023-08-30T07:31:57;16.70;;;11.07;;
56114;SDS011;41988;53.020;6.576;2023-08-30T07:34:42;14.90;;;10.50;;
56114;SDS011;41988;53.020;6.576;2023-08-30T07:37:26;14.27;;;9.88;;
56114;SDS011;41988;53.020;6.576;2023-08-30T07:40:11;11.77;;;9.05;;
56114;SDS011;41988;53.020;6.576;2023-08-30T07:42:56;15.77;;;11.18;;
56114;SDS011;41988;53.020;6.576;2023-08-30T07:45:40;14.82;;;9.73;;
56114;SDS011;41988;53.020;6.576;2023-08-30T07:48:24;15.23;;;10.30;;
56114;SDS011;41988;53.020;6.576;2023-08-30T07:51:09;13.60;;;9.20;;
56114;SDS011;41988;53.020;6.576;2023-08-30T07:53:54;14.23;;;9.70;;
56114;SDS011;41988;53.020;6.576;2023-08-30T07:56:38;13.73;;;9.18;;
56114;SDS011;41988;53.020;6.576;2023-08-30T07:59:23;12.50;;;8.27;;
56114;SDS011;41988;53.020;6.576;2023-08-30T08:02:08;12.02;;;8.82;;
56114;SDS011;41988;53.020;6.576;2023-08-30T08:04:52;13.32;;;9.60;;
56114;SDS011;41988;53.020;6.576;2023-08-30T08:07:38;13.88;;;8.52;;
56114;SDS011;41988;53.020;6.576;2023-08-30T08:10:23;13.75;;;9.45;;
56114;SDS011;41988;53.020;6.576;2023-08-30T08:13:08;14.68;;;9.48;;
56114;SDS011;41988;53.020;6.576;2023-08-30T08:15:55;12.75;;;8.63;;
56114;SDS011;41988;53.020;6.576;2023-08-30T08:18:39;14.93;;;9.15;;
56114;SDS011;41988;53.020;6.576;2023-08-30T08:21:24;13.10;;;8.50;;
56114;SDS011;41988;53.020;6.576;2023-08-30T08:24:09;12.90;;;9.05;;
56114;SDS011;41988;53.020;6.576;2023-08-30T08:26:53;15.02;;;9.48;;
56114;SDS011;41988;53.020;6.576;2023-08-30T08:29:38;12.63;;;8.60;;
56114;SDS011;41988;53.020;6.576;2023-08-30T08:32:23;12.52;;;9.07;;
56114;SDS011;41988;53.020;6.576;2023-08-30T08:35:07;13.55;;;9.10;;
56114;SDS011;41988;53.020;6.576;2023-08-30T08:37:52;11.85;;;9.07;;
56114;SDS011;41988;53.020;6.576;2023-08-30T08:40:37;12.68;;;9.05;;
56114;SDS011;41988;53.020;6.576;2023-08-30T08:43:25;14.15;;;10.02;;
56114;SDS011;41988;53.020;6.576;2023-08-30T08:46:10;13.02;;;9.50;;
56114;SDS011;41988;53.020;6.576;2023-08-30T08:48:57;13.13;;;9.43;;
56114;SDS011;41988;53.020;6.576;2023-08-30T08:51:43;12.63;;;8.85;;
56114;SDS011;41988;53.020;6.576;2023-08-30T08:54:28;15.82;;;9.65;;
56114;SDS011;41988;53.020;6.576;2023-08-30T08:57:13;13.75;;;9.38;;
56114;SDS011;41988;53.020;6.576;2023-08-30T08:59:58;14.05;;;9.57;;
56114;SDS011;41988;53.020;6.576;2023-08-30T09:02:42;13.65;;;8.98;;
56114;SDS011;41988;53.020;6.576;2023-08-30T09:05:27;13.30;;;9.00;;
56114;SDS011;41988;53.020;6.576;2023-08-30T09:08:13;11.75;;;8.85;;
56114;SDS011;41988;53.020;6.576;2023-08-30T09:10:59;14.35;;;8.68;;
56114;SDS011;41988;53.020;6.576;2023-08-30T09:13:45;11.90;;;8.98;;
56114;SDS011;41988;53.020;6.576;2023-08-30T09:16:30;15.75;;;9.45;;
56114;SDS011;41988;53.020;6.576;2023-08-30T09:19:19;12.80;;;8.73;;
56114;SDS011;41988;53.020;6.576;2023-08-30T09:22:05;18.08;;;9.65;;
56114;SDS011;41988;53.020;6.576;2023-08-30T09:24:49;12.00;;;8.30;;
56114;SDS011;41988;53.020;6.576;2023-08-30T09:27:34;14.30;;;9.80;;
56114;SDS011;41988;53.020;6.576;2023-08-30T09:30:22;15.02;;;9.02;;
56114;SDS011;41988;53.020;6.576;2023-08-30T09:33:06;13.23;;;9.05;;
56114;SDS011;41988;53.020;6.576;2023-08-30T09:35:51;14.20;;;9.75;;
56114;SDS011;41988;53.020;6.576;2023-08-30T09:38:36;12.50;;;9.00;;
56114;SDS011;41988;53.020;6.576;2023-08-30T09:41:21;17.27;;;9.98;;
56114;SDS011;41988;53.020;6.576;2023-08-30T09:44:06;13.07;;;9.00;;
56114;SDS011;41988;53.020;6.576;2023-08-30T09:46:52;15.48;;;8.65;;
56114;SDS011;41988;53.020;6.576;2023-08-30T09:49:39;17.65;;;9.68;;
56114;SDS011;41988;53.020;6.576;2023-08-30T09:52:26;14.15;;;8.82;;
56114;SDS011;41988;53.020;6.576;2023-08-30T09:55:13;15.85;;;9.50;;
56114;SDS011;41988;53.020;6.576;2023-08-30T09:57:58;17.85;;;10.18;;
56114;SDS011;41988;53.020;6.576;2023-08-30T10:00:43;17.20;;;11.10;;
56114;SDS011;41988;53.020;6.576;2023-08-30T10:03:29;17.23;;;10.75;;
56114;SDS011;41988;53.020;6.576;2023-08-30T10:06:14;15.10;;;10.90;;
56114;SDS011;41988;53.020;6.576;2023-08-30T10:08:59;18.65;;;12.00;;
56114;SDS011;41988;53.020;6.576;2023-08-30T10:11:44;13.23;;;10.30;;
56114;SDS011;41988;53.020;6.576;2023-08-30T10:14:30;17.67;;;9.75;;
56114;SDS011;41988;53.020;6.576;2023-08-30T10:17:14;15.18;;;11.07;;
56114;SDS011;41988;53.020;6.576;2023-08-30T10:20:05;14.00;;;9.70;;
56114;SDS011;41988;53.020;6.576;2023-08-30T10:22:50;11.68;;;8.98;;
56114;SDS011;41988;53.020;6.576;2023-08-30T10:25:36;11.55;;;8.05;;
56114;SDS011;41988;53.020;6.576;2023-08-30T10:28:21;11.15;;;7.07;;
56114;SDS011;41988;53.020;6.576;2023-08-30T10:31:07;9.38;;;6.18;;
56114;SDS011;41988;53.020;6.576;2023-08-30T10:33:52;10.60;;;6.32;;
56114;SDS011;41988;53.020;6.576;2023-08-30T10:36:37;6.18;;;4.38;;
56114;SDS011;41988;53.020;6.576;2023-08-30T10:39:26;6.90;;;5.07;;
56114;SDS011;41988;53.020;6.576;2023-08-30T10:42:15;8.18;;;5.35;;
56114;SDS011;41988;53.020;6.576;2023-08-30T10:47:44;12.25;;;5.60;;
56114;SDS011;41988;53.020;6.576;2023-08-30T10:50:31;6.95;;;5.22;;
56114;SDS011;41988;53.020;6.576;2023-08-30T10:53:16;12.10;;;6.10;;
56114;SDS011;41988;53.020;6.576;2023-08-30T10:56:09;8.15;;;6.10;;
56114;SDS011;41988;53.020;6.576;2023-08-30T10:58:54;9.60;;;6.75;;
56114;SDS011;41988;53.020;6.576;2023-08-30T11:01:38;9.27;;;6.30;;
56114;SDS011;41988;53.020;6.576;2023-08-30T11:04:23;9.70;;;6.95;;
56114;SDS011;41988;53.020;6.576;2023-08-30T11:07:08;10.43;;;7.30;;
56114;SDS011;41988;53.020;6.576;2023-08-30T11:09:54;9.00;;;6.40;;
56114;SDS011;41988;53.020;6.576;2023-08-30T11:12:42;11.20;;;7.00;;
56114;SDS011;41988;53.020;6.576;2023-08-30T11:15:28;10.27;;;7.50;;
56114;SDS011;41988;53.020;6.576;2023-08-30T11:18:12;12.38;;;8.32;;
56114;SDS011;41988;53.020;6.576;2023-08-30T11:20:58;9.77;;;7.05;;
56114;SDS011;41988;53.020;6.576;2023-08-30T11:23:43;11.75;;;7.45;;
56114;SDS011;41988;53.020;6.576;2023-08-30T11:26:29;11.60;;;7.68;;
56114;SDS011;41988;53.020;6.576;2023-08-30T11:29:13;12.35;;;7.90;;
56114;SDS011;41988;53.020;6.576;2023-08-30T11:31:58;8.98;;;7.03;;
56114;SDS011;41988;53.020;6.576;2023-08-30T11:34:42;9.82;;;7.85;;
56114;SDS011;41988;53.020;6.576;2023-08-30T11:37:28;13.25;;;7.57;;
56114;SDS011;41988;53.020;6.576;2023-08-30T11:40:13;11.18;;;8.55;;
56114;SDS011;41988;53.020;6.576;2023-08-30T11:42:58;11.75;;;9.02;;
56114;SDS011;41988;53.020;6.576;2023-08-30T11:45:42;12.48;;;9.05;;
56114;SDS011;41988;53.020;6.576;2023-08-30T11:48:27;13.07;;;9.38;;
56114;SDS011;41988;53.020;6.576;2023-08-30T11:51:11;12.27;;;10.20;;
56114;SDS011;41988;53.020;6.576;2023-08-30T11:53:57;13.55;;;10.65;;
56114;SDS011;41988;53.020;6.576;2023-08-30T11:56:42;17.48;;;10.77;;
56114;SDS011;41988;53.020;6.576;2023-08-30T11:59:27;14.10;;;9.68;;
56114;SDS011;41988;53.020;6.576;2023-08-30T12:02:12;13.18;;;9.15;;
56114;SDS011;41988;53.020;6.576;2023-08-30T12:04:57;15.55;;;10.25;;
56114;SDS011;41988;53.020;6.576;2023-08-30T12:07:45;13.82;;;9.75;;
56114;SDS011;41988;53.020;6.576;2023-08-30T12:10:30;11.48;;;9.07;;
56114;SDS011;41988;53.020;6.576;2023-08-30T12:13:25;13.07;;;9.23;;
56114;SDS011;41988;53.020;6.576;2023-08-30T12:16:14;12.35;;;9.18;;
56114;SDS011;41988;53.020;6.576;2023-08-30T12:19:09;12.15;;;9.20;;
56114;SDS011;41988;53.020;6.576;2023-08-30T12:21:54;13.52;;;10.15;;
56114;SDS011;41988;53.020;6.576;2023-08-30T12:27:27;11.38;;;8.43;;
56114;SDS011;41988;53.020;6.576;2023-08-30T12:30:11;13.00;;;9.65;;
56114;SDS011;41988;53.020;6.576;2023-08-30T12:33:00;13.57;;;9.93;;
56114;SDS011;41988;53.020;6.576;2023-08-30T12:35:46;13.32;;;10.25;;
56114;SDS011;41988;53.020;6.576;2023-08-30T12:38:31;10.32;;;8.30;;
56114;SDS011;41988;53.020;6.576;2023-08-30T12:41:16;11.13;;;8.88;;
56114;SDS011;41988;53.020;6.576;2023-08-30T12:44:01;12.25;;;8.60;;
56114;SDS011;41988;53.020;6.576;2023-08-30T12:46:47;11.55;;;8.68;;
56114;SDS011;41988;53.020;6.576;2023-08-30T12:49:32;9.95;;;8.13;;
56114;SDS011;41988;53.020;6.576;2023-08-30T12:52:16;9.43;;;7.63;;
56114;SDS011;41988;53.020;6.576;2023-08-30T12:55:01;10.80;;;7.50;;
56114;SDS011;41988;53.020;6.576;2023-08-30T12:57:45;9.70;;;7.20;;
56114;SDS011;41988;53.020;6.576;2023-08-30T13:00:30;8.50;;;6.35;;
56114;SDS011;41988;53.020;6.576;2023-08-30T13:03:14;11.95;;;7.18;;
56114;SDS011;41988;53.020;6.576;2023-08-30T13:05:59;8.75;;;6.65;;
56114;SDS011;41988;53.020;6.576;2023-08-30T13:08:45;11.18;;;7.85;;
56114;SDS011;41988;53.020;6.576;2023-08-30T13:11:30;10.00;;;6.75;;
56114;SDS011;41988;53.020;6.576;2023-08-30T13:14:16;8.20;;;6.45;;
56114;SDS011;41988;53.020;6.576;2023-08-30T13:17:00;8.23;;;6.65;;
56114;SDS011;41988;53.020;6.576;2023-08-30T13:19:44;9.13;;;6.47;;
56114;SDS011;41988;53.020;6.576;2023-08-30T13:22:29;9.13;;;7.07;;
56114;SDS011;41988;53.020;6.576;2023-08-30T13:25:13;7.97;;;6.72;;
56114;SDS011;41988;53.020;6.576;2023-08-30T13:27:58;8.02;;;6.65;;
56114;SDS011;41988;53.020;6.576;2023-08-30T13:30:46;10.00;;;6.30;;
56114;SDS011;41988;53.020;6.576;2023-08-30T13:33:30;10.23;;;7.75;;
56114;SDS011;41988;53.020;6.576;2023-08-30T13:36:15;8.93;;;7.43;;
56114;SDS011;41988;53.020;6.576;2023-08-30T13:39:00;8.73;;;6.47;;
56114;SDS011;41988;53.020;6.576;2023-08-30T13:41:49;12.18;;;8.10;;
56114;SDS011;41988;53.020;6.576;2023-08-30T13:44:33;12.45;;;8.02;;
56114;SDS011;41988;53.020;6.576;2023-08-30T13:47:21;10.30;;;8.07;;
56114;SDS011;41988;53.020;6.576;2023-08-30T13:50:06;13.80;;;8.45;;
56114;SDS011;41988;53.020;6.576;2023-08-30T13:52:53;21.17;;;9.88;;
56114;SDS011;41988;53.020;6.576;2023-08-30T13:55:39;80.40;;;14.68;;
56114;SDS011;41988;53.020;6.576;2023-08-30T13:58:23;43.30;;;13.35;;
56114;SDS011;41988;53.020;6.576;2023-08-30T14:01:08;15.98;;;9.38;;
56114;SDS011;41988;53.020;6.576;2023-08-30T14:03:52;73.07;;;13.60;;
56114;SDS011;41988;53.020;6.576;2023-08-30T14:06:37;16.77;;;8.82;;
56114;SDS011;41988;53.020;6.576;2023-08-30T14:09:21;19.08;;;9.70;;
56114;SDS011;41988;53.020;6.576;2023-08-30T14:12:06;13.32;;;8.35;;
56114;SDS011;41988;53.020;6.576;2023-08-30T14:14:51;13.00;;;8.73;;
56114;SDS011;41988;53.020;6.576;2023-08-30T14:17:36;24.52;;;12.25;;
56114;SDS011;41988;53.020;6.576;2023-08-30T14:20:21;14.40;;;9.80;;
56114;SDS011;41988;53.020;6.576;2023-08-30T14:23:06;17.58;;;10.93;;
56114;SDS011;41988;53.020;6.576;2023-08-30T14:26:00;13.35;;;9.73;;
56114;SDS011;41988;53.020;6.576;2023-08-30T14:28:47;15.77;;;10.27;;
56114;SDS011;41988;53.020;6.576;2023-08-30T14:31:32;11.02;;;8.30;;
56114;SDS011;41988;53.020;6.576;2023-08-30T14:34:16;12.02;;;8.55;;
56114;SDS011;41988;53.020;6.576;2023-08-30T14:37:01;13.52;;;8.00;;
56114;SDS011;41988;53.020;6.576;2023-08-30T14:39:46;9.00;;;7.10;;
56114;SDS011;41988;53.020;6.576;2023-08-30T14:42:31;8.60;;;6.32;;
56114;SDS011;41988;53.020;6.576;2023-08-30T14:45:16;9.48;;;7.07;;
56114;SDS011;41988;53.020;6.576;2023-08-30T14:48:00;8.93;;;6.80;;
56114;SDS011;41988;53.020;6.576;2023-08-30T14:50:49;10.75;;;7.28;;
56114;SDS011;41988;53.020;6.576;2023-08-30T14:56:12;13.90;;;9.25;;
56114;SDS011;41988;53.020;6.576;2023-08-30T14:58:56;11.95;;;9.18;;
56114;SDS011;41988;53.020;6.576;2023-08-30T15:01:41;14.45;;;9.20;;
56114;SDS011;41988;53.020;6.576;2023-08-30T15:04:26;13.10;;;9.55;;
56114;SDS011;41988;53.020;6.576;2023-08-30T15:07:11;14.35;;;9.00;;
56114;SDS011;41988;53.020;6.576;2023-08-30T15:09:55;9.23;;;7.55;;
56114;SDS011;41988;53.020;6.576;2023-08-30T15:12:40;9.90;;;7.05;;
56114;SDS011;41988;53.020;6.576;2023-08-30T15:15:24;9.60;;;7.20;;
56114;SDS011;41988;53.020;6.576;2023-08-30T15:18:09;9.20;;;6.97;;
56114;SDS011;41988;53.020;6.576;2023-08-30T15:20:54;11.35;;;7.68;;
56114;SDS011;41988;53.020;6.576;2023-08-30T15:23:39;8.65;;;6.53;;
56114;SDS011;41988;53.020;6.576;2023-08-30T15:26:24;8.48;;;6.40;;
56114;SDS011;41988;53.020;6.576;2023-08-30T15:29:09;6.47;;;5.50;;
56114;SDS011;41988;53.020;6.576;2023-08-30T15:31:53;7.47;;;5.40;;
56114;SDS011;41988;53.020;6.576;2023-08-30T15:34:38;6.85;;;5.53;;
56114;SDS011;41988;53.020;6.576;2023-08-30T15:37:22;7.43;;;5.80;;
56114;SDS011;41988;53.020;6.576;2023-08-30T15:40:07;6.93;;;5.47;;
56114;SDS011;41988;53.020;6.576;2023-08-30T15:42:53;6.70;;;5.75;;
56114;SDS011;41988;53.020;6.576;2023-08-30T15:45:37;5.70;;;4.80;;
56114;SDS011;41988;53.020;6.576;2023-08-30T15:48:22;8.63;;;5.22;;
56114;SDS011;41988;53.020;6.576;2023-08-30T15:51:07;5.20;;;3.83;;
56114;SDS011;41988;53.020;6.576;2023-08-30T15:53:52;6.45;;;4.22;;
56114;SDS011;41988;53.020;6.576;2023-08-30T15:56:37;8.52;;;5.25;;
56114;SDS011;41988;53.020;6.576;2023-08-30T15:59:21;5.72;;;5.00;;
56114;SDS011;41988;53.020;6.576;2023-08-30T16:02:06;6.75;;;5.57;;
56114;SDS011;41988;53.020;6.576;2023-08-30T16:04:50;6.03;;;5.28;;
56114;SDS011;41988;53.020;6.576;2023-08-30T16:07:35;7.10;;;5.65;;
56114;SDS011;41988;53.020;6.576;2023-08-30T16:10:19;8.60;;;6.28;;
56114;SDS011;41988;53.020;6.576;2023-08-30T16:13:05;10.05;;;6.63;;
56114;SDS011;41988;53.020;6.576;2023-08-30T16:15:49;10.85;;;6.63;;
56114;SDS011;41988;53.020;6.576;2023-08-30T16:18:34;7.80;;;6.22;;
56114;SDS011;41988;53.020;6.576;2023-08-30T16:21:18;9.02;;;6.15;;
56114;SDS011;41988;53.020;6.576;2023-08-30T16:24:04;9.35;;;6.93;;
56114;SDS011;41988;53.020;6.576;2023-08-30T16:26:48;10.18;;;7.22;;
56114;SDS011;41988;53.020;6.576;2023-08-30T16:29:39;9.07;;;7.30;;